Time;durP1;ratioP1;P1;durP2;ratioP2;P2;SDS_P1;SDS_P2;PMS_P1;PMS_P2;Temp;Humidity;BMP_temperature;BMP_pressure;BME280_temperature;BME280_humidity;BME280_pressure;Samples;Min_cycle;Max_cycle;Signal;HPM_P1;HPM_P2
2023/04/24 00:01:53;;;;;;;1.35;1.25;;;10.10;99.90;;;;;;5075956;28;20513;-83
2023/04/24 00:04:19;;;;;;;1.23;1.20;;;10.10;99.90;;;;;;5076138;28;20059;-82
2023/04/24 00:06:49;;;;;;;1.40;1.30;;;10.10;99.90;;;;;;5092774;28;20056;-83
2023/04/24 00:09:15;;;;;;;2.15;1.35;;;10.10;99.90;;;;;;5092577;28;20399;-83
2023/04/24 00:11:41;;;;;;;1.35;1.23;;;10.00;99.90;;;;;;5092890;28;20055;-83
2023/04/24 00:14:06;;;;;;;1.40;1.30;;;10.10;99.90;;;;;;5092971;28;20055;-83
2023/04/24 00:16:32;;;;;;;2.33;1.50;;;10.00;99.90;;;;;;5092149;28;20050;-84
2023/04/24 00:18:58;;;;;;;2.13;1.40;;;10.00;99.90;;;;;;5092317;28;20043;-83
2023/04/24 00:21:26;;;;;;;1.33;1.23;;;9.90;99.90;;;;;;5057356;28;20063;-84
2023/04/24 00:23:51;;;;;;;2.13;1.30;;;9.90;99.90;;;;;;5092431;28;20138;-83
2023/04/24 00:26:17;;;;;;;2.03;1.50;;;9.90;99.90;;;;;;5075075;28;20765;-83
2023/04/24 00:28:43;;;;;;;1.80;1.50;;;9.90;99.90;;;;;;5110231;28;20035;-83
2023/04/24 00:31:08;;;;;;;2.85;1.60;;;9.90;99.90;;;;;;5074923;28;20129;-83
2023/04/24 00:33:34;;;;;;;1.70;1.60;;;9.90;99.90;;;;;;5074951;28;20056;-84
2023/04/24 00:36:00;;;;;;;2.55;2.30;;;10.00;99.90;;;;;;5075146;28;20044;-83
2023/04/24 00:38:25;;;;;;;2.33;2.20;;;9.90;99.90;;;;;;5075048;28;20483;-84
2023/04/24 00:40:51;;;;;;;2.38;2.28;;;9.90;99.90;;;;;;5092239;28;20538;-83
2023/04/24 00:43:17;;;;;;;2.55;2.35;;;9.90;99.90;;;;;;5092016;28;20051;-83
2023/04/24 00:45:42;;;;;;;3.10;2.83;;;10.00;99.90;;;;;;5076041;28;20043;-84
2023/04/24 00:48:08;;;;;;;2.85;2.65;;;9.90;99.90;;;;;;5059135;28;20096;-83
2023/04/24 00:50:36;;;;;;;2.40;2.30;;;9.90;99.90;;;;;;5074743;28;20499;-83
2023/04/24 00:53:01;;;;;;;2.40;2.20;;;9.90;99.90;;;;;;5058328;28;20051;-83
2023/04/24 00:55:27;;;;;;;2.88;2.67;;;9.90;99.90;;;;;;5113748;28;20074;-83
2023/04/24 00:57:52;;;;;;;2.97;2.78;;;9.90;99.90;;;;;;5102191;28;20081;-85
2023/04/24 01:00:18;;;;;;;2.95;2.75;;;9.90;99.90;;;;;;5110732;28;20398;-83
2023/04/24 01:02:51;;;;;;;3.15;2.92;;;9.90;99.90;;;;;;5060705;28;20062;-83
2023/04/24 01:05:17;;;;;;;3.05;2.85;;;10.00;99.90;;;;;;5092277;28;20082;-82
2023/04/24 01:07:45;;;;;;;3.20;2.90;;;10.00;99.90;;;;;;5109487;28;20368;-82
2023/04/24 01:10:11;;;;;;;3.70;3.40;;;10.00;99.90;;;;;;5075219;28;20184;-83
2023/04/24 01:12:38;;;;;;;3.80;3.40;;;9.90;99.90;;;;;;5058279;28;20098;-84
2023/04/24 01:15:05;;;;;;;4.05;3.60;;;9.90;99.90;;;;;;5075281;28;20054;-84
2023/04/24 01:17:31;;;;;;;3.97;3.67;;;9.90;99.90;;;;;;5074945;28;20054;-84
2023/04/24 01:19:57;;;;;;;3.92;3.63;;;9.90;99.90;;;;;;5109561;28;20074;-82
2023/04/24 01:22:22;;;;;;;3.92;3.63;;;9.90;99.90;;;;;;5091227;28;20058;-83
2023/04/24 01:24:48;;;;;;;4.38;3.97;;;9.90;99.90;;;;;;5075113;28;20058;-82
2023/04/24 01:27:14;;;;;;;4.80;4.40;;;9.90;99.90;;;;;;5074894;28;20036;-82
2023/04/24 01:29:39;;;;;;;6.30;4.97;;;9.90;99.90;;;;;;5091593;28;20046;-82
2023/04/24 01:32:05;;;;;;;5.68;4.65;;;9.80;99.90;;;;;;5075006;28;20059;-83
2023/04/24 01:34:31;;;;;;;5.95;5.35;;;9.90;99.90;;;;;;5091759;28;20545;-83
2023/04/24 01:36:57;;;;;;;5.80;5.25;;;9.90;99.90;;;;;;5075013;28;20146;-84
2023/04/24 01:39:28;;;;;;;5.70;5.13;;;9.80;99.90;;;;;;5109193;28;20036;-84
2023/04/24 01:41:54;;;;;;;7.82;6.28;;;9.80;99.90;;;;;;5091438;28;20052;-85
2023/04/24 01:44:20;;;;;;;6.85;6.15;;;9.80;99.90;;;;;;5091308;28;20057;-84
2023/04/24 01:46:45;;;;;;;6.65;5.75;;;9.80;99.90;;;;;;5074348;28;20043;-84
2023/04/24 01:49:11;;;;;;;6.82;6.00;;;9.80;99.90;;;;;;5074586;28;20494;-83
2023/04/24 01:51:36;;;;;;;8.27;6.25;;;9.80;99.90;;;;;;5073758;28;20482;-83
2023/04/24 01:54:02;;;;;;;7.55;6.75;;;9.80;99.90;;;;;;5091426;28;20523;-84
2023/04/24 01:56:33;;;;;;;7.90;7.03;;;9.80;99.90;;;;;;5058288;28;20052;-82
2023/04/24 01:58:59;;;;;;;8.00;7.03;;;9.80;99.90;;;;;;5047750;28;20093;-82
2023/04/24 02:01:25;;;;;;;8.25;7.10;;;9.90;99.90;;;;;;5085553;28;20074;-81
2023/04/24 02:03:51;;;;;;;8.50;7.60;;;9.80;99.90;;;;;;5084426;28;20047;-81
2023/04/24 02:06:16;;;;;;;11.35;8.35;;;9.80;99.90;;;;;;5101571;28;20047;-80
2023/04/24 02:08:49;;;;;;;9.27;7.93;;;9.80;99.90;;;;;;5089647;28;20043;-81
2023/04/24 02:11:34;;;;;;;9.48;7.88;;;9.80;99.90;;;;;;5095355;28;20042;-82
2023/04/24 02:14:00;;;;;;;9.88;8.88;;;9.80;99.90;;;;;;5121082;28;20394;-81
2023/04/24 02:16:41;;;;;;;9.93;8.82;;;9.80;99.90;;;;;;5085424;28;20040;-82
2023/04/24 02:19:18;;;;;;;9.65;8.68;;;9.90;99.90;;;;;;5098781;28;20490;-82
2023/04/24 02:21:44;;;;;;;10.57;9.48;;;9.90;99.90;;;;;;5061310;28;20134;-81
2023/04/24 02:24:10;;;;;;;11.20;9.80;;;9.80;99.90;;;;;;5089768;28;20060;-83
2023/04/24 02:26:36;;;;;;;10.93;9.82;;;9.80;99.90;;;;;;5087717;28;20132;-83
2023/04/24 02:29:39;;;;;;;12.00;10.80;;;9.80;99.90;;;;;;5087429;28;20051;-83
2023/04/24 02:32:30;;;;;;;11.27;10.18;;;9.70;99.90;;;;;;5087997;28;20056;-83
2023/04/24 02:35:25;;;;;;;10.85;9.85;;;9.70;99.90;;;;;;5078743;28;20495;-83
2023/04/24 02:37:50;;;;;;;11.60;10.50;;;9.70;99.90;;;;;;5091764;28;20087;-83
2023/04/24 02:41:06;;;;;;;11.27;9.98;;;9.60;99.90;;;;;;5074941;28;20481;-82
2023/04/24 02:44:18;;;;;;;11.40;10.30;;;9.60;99.90;;;;;;5090426;28;20539;-82
2023/04/24 02:47:06;;;;;;;10.18;9.18;;;9.60;99.90;;;;;;5090533;28;20062;-82
2023/04/24 02:49:34;;;;;;;12.75;9.30;;;9.50;99.90;;;;;;5056860;28;20071;-82
2023/04/24 02:52:02;;;;;;;10.43;9.43;;;9.50;99.90;;;;;;5090028;28;20457;-82
2023/04/24 02:54:34;;;;;;;10.38;9.48;;;9.50;99.90;;;;;;5058143;28;20051;-83
2023/04/24 02:57:02;;;;;;;10.30;9.25;;;9.50;99.90;;;;;;5057638;28;20059;-81
2023/04/24 02:59:30;;;;;;;10.90;9.80;;;9.50;99.90;;;;;;5056965;28;20052;-81
2023/04/24 03:02:05;;;;;;;12.40;10.15;;;9.40;99.90;;;;;;5090458;28;20135;-82
2023/04/24 03:04:39;;;;;;;10.25;9.25;;;9.40;99.90;;;;;;5074691;28;20131;-81
2023/04/24 03:07:26;;;;;;;10.23;9.23;;;9.40;99.90;;;;;;5075318;28;20066;-82
2023/04/24 03:10:06;;;;;;;10.50;9.52;;;9.40;99.90;;;;;;5090509;28;20128;-82
2023/04/24 03:12:41;;;;;;;9.82;8.93;;;9.40;99.90;;;;;;5074832;28;20407;-81
2023/04/24 03:15:17;;;;;;;9.48;8.52;;;9.40;99.90;;;;;;5074482;28;20113;-82
2023/04/24 03:17:43;;;;;;;10.15;9.15;;;9.40;99.90;;;;;;5090356;28;20102;-82
2023/04/24 03:20:29;;;;;;;8.95;8.13;;;9.40;99.90;;;;;;5094071;28;20048;-82
2023/04/24 03:23:26;;;;;;;9.82;8.93;;;9.30;99.90;;;;;;5094974;28;20043;-84
2023/04/24 03:26:05;;;;;;;10.18;9.27;;;9.30;99.90;;;;;;5059634;28;20166;-83
2023/04/24 03:28:58;;;;;;;9.20;8.40;;;9.30;99.90;;;;;;5096043;28;20572;-82
2023/04/24 03:31:33;;;;;;;9.20;8.30;;;9.30;99.90;;;;;;5091487;28;20061;-82
2023/04/24 03:34:00;;;;;;;9.80;8.90;;;9.30;99.90;;;;;;5091720;28;20094;-82
2023/04/24 03:36:27;;;;;;;9.43;8.43;;;9.30;99.90;;;;;;5075113;28;20124;-82
2023/04/24 03:39:13;;;;;;;9.68;8.75;;;9.30;99.90;;;;;;5076823;28;20055;-82
2023/04/24 03:42:02;;;;;;;10.77;8.98;;;9.30;99.90;;;;;;5096187;28;20136;-82
2023/04/24 03:44:35;;;;;;;10.48;9.38;;;9.30;99.90;;;;;;5078640;28;20063;-83
2023/04/24 03:47:27;;;;;;;11.75;9.95;;;9.20;99.90;;;;;;5103215;28;20138;-83
2023/04/24 03:50:48;;;;;;;11.50;10.27;;;9.20;99.90;;;;;;5074849;28;20059;-81
2023/04/24 03:53:30;;;;;;;10.38;9.18;;;9.20;99.90;;;;;;5094253;28;20043;-82
2023/04/24 03:56:16;;;;;;;11.63;10.32;;;9.20;99.90;;;;;;5084818;28;20161;-82
2023/04/24 03:58:50;;;;;;;11.35;10.00;;;9.20;99.90;;;;;;5087977;28;20062;-81
2023/04/24 04:01:25;;;;;;;10.88;9.80;;;9.20;99.90;;;;;;5059601;28;20058;-82
2023/04/24 04:04:03;;;;;;;12.18;10.95;;;9.20;99.90;;;;;;5107962;28;20055;-82
2023/04/24 04:10:11;;;;;;;13.10;10.48;;;9.20;99.90;;;;;;5096786;28;20181;-83
2023/04/24 04:12:37;;;;;;;11.32;10.23;;;9.20;99.90;;;;;;5113487;28;20134;-83
2023/04/24 04:15:22;;;;;;;11.40;10.25;;;9.10;99.90;;;;;;5094839;28;20082;-83
2023/04/24 04:18:17;;;;;;;11.05;9.95;;;9.20;99.90;;;;;;5107285;28;20143;-81
2023/04/24 04:21:24;;;;;;;10.68;9.68;;;9.20;99.90;;;;;;5091391;28;20052;-82
2023/04/24 04:24:42;;;;;;;11.52;9.15;;;9.10;99.90;;;;;;5110634;28;20054;-83
2023/04/24 04:27:25;;;;;;;9.98;8.93;;;9.10;99.90;;;;;;5053984;28;20530;-83
2023/04/24 04:30:41;;;;;;;9.10;8.20;;;9.20;99.90;;;;;;5090908;28;20051;-81
2023/04/24 04:33:39;;;;;;;8.82;7.90;;;9.20;99.90;;;;;;5110126;28;20066;-82
2023/04/24 04:36:36;;;;;;;7.82;7.07;;;9.20;99.90;;;;;;5067351;28;20496;-81
2023/04/24 04:39:28;;;;;;;7.57;6.53;;;9.20;99.90;;;;;;5034461;28;20119;-82
2023/04/24 04:42:03;;;;;;;7.68;6.97;;;9.30;99.90;;;;;;5014093;28;20160;-81
2023/04/24 04:45:12;;;;;;;9.45;7.18;;;9.30;99.90;;;;;;5046580;28;20586;-82
2023/04/24 04:48:22;;;;;;;7.18;6.47;;;9.30;99.90;;;;;;5046385;28;20056;-82
2023/04/24 04:51:15;;;;;;;7.00;5.60;;;9.20;99.90;;;;;;5031102;28;20084;-81
2023/04/24 04:54:08;;;;;;;4.45;4.05;;;9.30;99.90;;;;;;5017022;28;20053;-82
2023/04/24 04:57:55;;;;;;;3.40;3.10;;;9.30;99.90;;;;;;5046408;28;20072;-82
2023/04/24 05:01:06;;;;;;;2.95;2.75;;;9.30;99.90;;;;;;5012463;28;20056;-82
2023/04/24 05:04:13;;;;;;;3.50;3.20;;;9.20;99.90;;;;;;5028590;28;20045;-82
2023/04/24 05:06:52;;;;;;;4.53;3.90;;;9.20;99.90;;;;;;5029225;28;20472;-83
2023/04/24 05:09:30;;;;;;;5.05;4.60;;;9.20;99.90;;;;;;4983342;28;20868;-83
2023/04/24 05:12:46;;;;;;;5.60;5.10;;;9.20;99.90;;;;;;5039388;28;20187;-83
2023/04/24 05:16:20;;;;;;;7.03;5.95;;;9.30;99.90;;;;;;4971407;28;20215;-83
2023/04/24 05:23:00;;;;;;;7.85;6.82;;;9.40;99.90;;;;;;4960741;28;20047;-82
2023/04/24 05:25:52;;;;;;;8.70;7.32;;;9.30;99.90;;;;;;4969756;28;20065;-82
2023/04/24 05:28:29;;;;;;;8.50;6.97;;;9.30;99.90;;;;;;4945290;28;20205;-82
2023/04/24 05:31:04;;;;;;;8.55;7.00;;;9.40;99.90;;;;;;4932423;29;20077;-83
2023/04/24 05:33:31;;;;;;;7.43;6.63;;;9.30;99.90;;;;;;4947883;29;20503;-83
2023/04/24 05:36:14;;;;;;;;;;;9.30;99.90;;;;;;4944406;29;20058;-83
2023/04/24 05:38:43;;;;;;;5.60;5.05;;;9.30;99.90;;;;;;4948486;28;19926;-82
2023/04/24 05:41:18;;;;;;;6.18;5.57;;;9.20;99.90;;;;;;4947805;29;20131;-80
2023/04/24 05:43:47;;;;;;;5.32;4.82;;;9.20;99.90;;;;;;4963765;28;20526;-82
2023/04/24 05:46:18;;;;;;;5.65;5.05;;;9.20;99.90;;;;;;4954192;28;20138;-83
2023/04/24 05:49:12;;;;;;;5.53;4.57;;;9.20;99.90;;;;;;4990298;28;20540;-83
2023/04/24 05:51:39;;;;;;;5.90;4.45;;;9.20;99.90;;;;;;5004628;28;20056;-80
2023/04/24 05:54:05;;;;;;;5.43;4.90;;;9.20;99.90;;;;;;5006074;28;20159;-82
2023/04/24 05:56:32;;;;;;;5.35;4.50;;;9.30;99.90;;;;;;5006580;28;20054;-81
2023/04/24 05:58:58;;;;;;;6.03;4.43;;;9.30;99.90;;;;;;5007041;28;20105;-82
2023/04/24 06:01:31;;;;;;;5.93;4.60;;;9.30;99.90;;;;;;5010258;28;20058;-81
2023/04/24 06:04:04;;;;;;;4.85;4.20;;;9.30;99.90;;;;;;5022809;28;20057;-83
2023/04/24 06:06:43;;;;;;;5.00;4.45;;;9.30;99.90;;;;;;5013201;28;20525;-81
2023/04/24 06:09:20;;;;;;;5.05;4.55;;;9.30;99.90;;;;;;4979975;28;20186;-82
2023/04/24 06:11:46;;;;;;;;;;;9.30;99.90;;;;;;4996078;28;20068;-83
2023/04/24 06:14:12;;;;;;;4.97;4.30;;;9.30;99.90;;;;;;5008703;28;20042;-82
2023/04/24 06:16:47;;;;;;;5.85;4.25;;;8.30;99.90;;;;;;5009144;28;20058;-82
2023/04/24 06:19:13;;;;;;;5.28;4.10;;;9.30;99.90;;;;;;4976355;28;20050;-82
2023/04/24 06:21:40;;;;;;;4.70;4.15;;;9.40;99.90;;;;;;4991133;28;20157;-83
2023/04/24 06:24:16;;;;;;;5.32;4.65;;;9.40;99.90;;;;;;5032589;28;20147;-82
2023/04/24 06:26:44;;;;;;;4.93;4.25;;;9.50;99.90;;;;;;5047602;28;20057;-81
2023/04/24 06:29:17;;;;;;;7.38;4.93;;;9.50;99.90;;;;;;5015342;28;20085;-82
2023/04/24 06:32:10;;;;;;;5.70;4.80;;;9.50;99.90;;;;;;5072640;28;20553;-81
2023/04/24 06:34:38;;;;;;;6.18;4.25;;;9.50;99.90;;;;;;5075979;28;20059;-82
2023/04/24 06:37:28;;;;;;;6.38;4.57;;;9.10;99.90;;;;;;5075475;28;20040;-82
2023/04/24 06:40:02;;;;;;;4.75;4.35;;;9.50;99.90;;;;;;5090511;28;20158;-82
2023/04/24 06:42:36;;;;;;;4.95;4.45;;;9.60;99.90;;;;;;5090806;28;20059;-81
2023/04/24 06:45:21;;;;;;;6.82;4.18;;;9.60;99.90;;;;;;5087140;28;20141;-83
2023/04/24 06:48:15;;;;;;;6.57;4.28;;;9.70;99.90;;;;;;5077391;28;20070;-82
2023/04/24 06:50:44;;;;;;;5.38;4.20;;;9.60;99.90;;;;;;5072969;28;20063;-82
2023/04/24 06:53:31;;;;;;;3.63;3.22;;;9.70;99.90;;;;;;5086281;28;20091;-82
2023/04/24 06:56:00;;;;;;;3.70;3.33;;;9.70;99.90;;;;;;5090637;28;20055;-83
2023/04/24 06:58:28;;;;;;;3.55;3.15;;;9.70;99.90;;;;;;5089847;28;20059;-82
2023/04/24 07:00:59;;;;;;;3.17;2.95;;;9.70;99.90;;;;;;5073286;28;20086;-82
2023/04/24 07:03:41;;;;;;;3.75;3.25;;;9.70;99.90;;;;;;5071781;28;20470;-83
2023/04/24 07:06:16;;;;;;;3.58;3.15;;;9.80;99.90;;;;;;5089101;28;20125;-82
2023/04/24 07:09:09;;;;;;;3.53;3.00;;;9.80;99.90;;;;;;5073419;28;20194;-81
2023/04/24 07:11:59;;;;;;;4.35;3.78;;;9.90;99.90;;;;;;5091164;28;20059;-83
2023/04/24 07:14:28;;;;;;;5.85;4.13;;;10.00;99.90;;;;;;5091959;28;20058;-85
2023/04/24 07:16:57;;;;;;;7.35;4.78;;;10.00;99.90;;;;;;5103079;28;20083;-86
2023/04/24 07:19:23;;;;;;;6.97;5.07;;;10.10;99.90;;;;;;5094621;28;20070;-86
2023/04/24 07:21:50;;;;;;;8.05;6.35;;;10.00;99.90;;;;;;5082549;27;20047;-84
2023/04/24 07:24:16;;;;;;;9.55;6.43;;;10.10;99.90;;;;;;5119987;27;20124;-89
2023/04/24 07:26:48;;;;;;;9.35;6.22;;;9.60;99.90;;;;;;5091235;27;20047;-86
2023/04/24 07:29:15;;;;;;;7.50;6.30;;;10.20;99.90;;;;;;5109740;27;20039;-84
2023/04/24 07:31:41;;;;;;;8.27;6.38;;;10.20;99.90;;;;;;5075977;27;20076;-84
2023/04/24 07:34:12;;;;;;;9.57;6.63;;;10.20;99.90;;;;;;5094490;28;20119;-85
2023/04/24 07:36:41;;;;;;;11.02;5.80;;;10.10;99.90;;;;;;5112751;27;20569;-85
2023/04/24 07:39:09;;;;;;;7.22;6.07;;;10.10;99.90;;;;;;5066244;27;20086;-86
2023/04/24 07:41:34;;;;;;;8.38;5.00;;;10.10;99.90;;;;;;5101175;28;20054;-85
2023/04/24 07:44:00;;;;;;;6.78;4.43;;;10.00;99.90;;;;;;5067770;27;20043;-84
2023/04/24 07:46:29;;;;;;;5.90;3.90;;;9.90;99.90;;;;;;5064281;27;20073;-83
2023/04/24 07:48:55;;;;;;;4.55;2.63;;;10.60;99.90;;;;;;5098812;27;20043;-84
2023/04/24 07:51:21;;;;;;;3.78;2.47;;;9.70;99.90;;;;;;5085456;27;20539;-85
2023/04/24 07:53:47;;;;;;;3.05;2.22;;;9.70;99.90;;;;;;5059456;27;20054;-85
2023/04/24 07:56:16;;;;;;;4.43;2.30;;;9.70;99.90;;;;;;5071446;27;20036;-85
2023/04/24 07:58:42;;;;;;;6.15;2.95;;;9.60;99.90;;;;;;5069178;27;20054;-84
2023/04/24 08:01:08;;;;;;;4.45;2.80;;;9.70;99.90;;;;;;5104784;27;20039;-84
2023/04/24 08:03:34;;;;;;;3.67;2.60;;;9.70;99.90;;;;;;5101166;27;20104;-84
2023/04/24 08:05:59;;;;;;;5.40;3.03;;;9.70;99.90;;;;;;5063570;28;20051;-82
2023/04/24 08:08:26;;;;;;;4.32;2.85;;;9.80;99.90;;;;;;5097611;27;20047;-82
2023/04/24 08:10:54;;;;;;;4.45;3.30;;;9.80;99.90;;;;;;5116321;27;20391;-84
2023/04/24 08:13:27;;;;;;;6.47;3.90;;;9.80;99.90;;;;;;5094107;27;20047;-83
2023/04/24 08:16:08;;;;;;;4.03;3.40;;;9.80;99.90;;;;;;5102862;27;20586;-84
2023/04/24 08:18:45;;;;;;;5.68;3.25;;;9.80;99.90;;;;;;5104655;27;20126;-84
2023/04/24 08:21:16;;;;;;;7.22;3.47;;;9.60;99.90;;;;;;5102431;27;20495;-84
2023/04/24 08:23:43;;;;;;;5.00;3.40;;;9.30;99.90;;;;;;5110626;27;20173;-81
2023/04/24 08:26:11;;;;;;;4.22;3.05;;;9.60;99.90;;;;;;5124081;27;20043;-85
2023/04/24 08:28:39;;;;;;;5.47;3.13;;;9.50;99.90;;;;;;5074561;27;20323;-84
2023/04/24 08:31:05;;;;;;;7.68;4.05;;;9.50;99.90;;;;;;5084406;27;20163;-83
2023/04/24 08:33:36;;;;;;;11.07;5.03;;;9.50;99.90;;;;;;5084167;27;20505;-83
2023/04/24 08:36:05;;;;;;;10.60;5.68;;;9.40;99.90;;;;;;5084849;27;20116;-82
2023/04/24 08:38:31;;;;;;;10.80;5.90;;;9.40;99.90;;;;;;5117317;27;20039;-82
2023/04/24 08:40:58;;;;;;;9.88;6.82;;;9.40;99.90;;;;;;5071886;27;20035;-85
2023/04/24 08:43:24;;;;;;;10.80;7.43;;;9.40;99.90;;;;;;5091103;28;20385;-83
2023/04/24 08:45:51;;;;;;;19.60;9.93;;;9.50;99.90;;;;;;5092578;28;20059;-84
2023/04/24 08:48:17;;;;;;;22.08;13.57;;;9.50;99.90;;;;;;5091780;28;20091;-83
2023/04/24 08:50:44;;;;;;;22.38;13.48;;;9.40;99.90;;;;;;5058435;28;20051;-81
2023/04/24 08:53:10;;;;;;;27.70;14.52;;;9.30;99.90;;;;;;5074600;28;20138;-83
2023/04/24 08:55:45;;;;;;;25.10;13.52;;;9.30;99.90;;;;;;5074624;28;20134;-81
2023/04/24 08:58:12;;;;;;;33.55;16.73;;;9.20;99.90;;;;;;5073966;28;20043;-82
2023/04/24 09:00:39;;;;;;;28.70;16.63;;;9.10;99.90;;;;;;5074706;28;20047;-81
2023/04/24 09:03:05;;;;;;;32.75;16.15;;;9.00;99.90;;;;;;5074615;28;20135;-81
2023/04/24 09:05:31;;;;;;;25.42;14.57;;;9.00;99.90;;;;;;5074737;28;20059;-82
2023/04/24 09:07:57;;;;;;;31.15;16.50;;;9.00;99.90;;;;;;5074725;28;20058;-83
2023/04/24 09:10:24;;;;;;;28.83;15.38;;;8.90;99.90;;;;;;5093918;28;20688;-83
2023/04/24 09:12:53;;;;;;;30.02;16.85;;;9.00;99.90;;;;;;5086837;28;20466;-81
2023/04/24 09:15:20;;;;;;;33.13;17.08;;;8.90;99.90;;;;;;5099827;27;20078;-83
2023/04/24 09:17:46;;;;;;;29.15;16.85;;;8.90;99.90;;;;;;5102413;28;20043;-84
2023/04/24 09:20:12;;;;;;;29.95;17.88;;;8.90;99.90;;;;;;5084420;28;20082;-83
2023/04/24 09:22:37;;;;;;;26.15;17.83;;;8.80;99.90;;;;;;5072361;28;20443;-80
2023/04/24 09:25:05;;;;;;;26.85;17.05;;;8.70;99.90;;;;;;5071376;28;20113;-81
2023/04/24 09:27:31;;;;;;;25.90;15.90;;;8.70;99.90;;;;;;5119123;28;20050;-84
2023/04/24 09:29:57;;;;;;;33.60;18.17;;;8.70;99.90;;;;;;5103599;28;20049;-84
2023/04/24 09:32:24;;;;;;;26.90;16.77;;;8.70;99.90;;;;;;5111462;28;20047;-82
2023/04/24 09:35:09;;;;;;;31.88;16.92;;;8.60;99.90;;;;;;5084887;28;20047;-84
2023/04/24 09:37:39;;;;;;;28.30;16.20;;;8.60;99.90;;;;;;5076513;28;20059;-84
2023/04/24 09:40:18;;;;;;;25.70;16.85;;;8.10;99.90;;;;;;5080052;28;20428;-83
2023/04/24 09:42:57;;;;;;;23.85;16.42;;;8.50;99.90;;;;;;5103493;27;20055;-81
2023/04/24 09:45:28;;;;;;;29.20;15.90;;;8.50;99.90;;;;;;5086612;27;20054;-83
2023/04/24 09:47:55;;;;;;;28.23;16.35;;;8.50;99.90;;;;;;5088916;27;20133;-83
2023/04/24 09:50:21;;;;;;;25.60;15.48;;;8.50;99.90;;;;;;5103901;27;20122;-84
2023/04/24 09:52:58;;;;;;;27.63;15.55;;;8.60;99.90;;;;;;5079450;27;20574;-82
2023/04/24 09:55:24;;;;;;;21.17;14.50;;;8.70;99.90;;;;;;5100044;27;20039;-82
2023/04/24 09:57:55;;;;;;;24.98;14.40;;;8.70;99.90;;;;;;5083105;27;20043;-82
2023/04/24 10:00:31;;;;;;;19.85;12.75;;;8.70;99.90;;;;;;5066765;27;20039;-84
2023/04/24 10:03:01;;;;;;;22.50;13.40;;;8.70;99.90;;;;;;5100095;27;20514;-82
2023/04/24 10:05:37;;;;;;;19.50;11.80;;;8.70;99.90;;;;;;5086360;27;20043;-84
2023/04/24 10:08:03;;;;;;;22.58;12.38;;;8.70;99.90;;;;;;5071693;27;20039;-84
2023/04/24 10:10:30;;;;;;;18.67;11.52;;;8.60;99.90;;;;;;5086142;27;20449;-82
2023/04/24 10:12:55;;;;;;;19.40;11.57;;;8.60;99.90;;;;;;5068852;27;20108;-85
2023/04/24 10:15:21;;;;;;;19.52;12.60;;;8.60;99.90;;;;;;5086367;27;20051;-82
2023/04/24 10:17:53;;;;;;;22.15;12.38;;;8.70;99.90;;;;;;5086611;27;20495;-83
2023/04/24 10:20:23;;;;;;;19.05;11.30;;;8.70;99.90;;;;;;5087067;27;20491;-83
2023/04/24 10:22:50;;;;;;;17.67;10.93;;;8.70;99.90;;;;;;5066635;28;20059;-82
2023/04/24 10:25:21;;;;;;;22.23;10.55;;;8.70;99.90;;;;;;5083771;28;20040;-85
2023/04/24 10:27:47;;;;;;;14.07;8.80;;;8.60;99.90;;;;;;5101486;28;20043;-84
2023/04/24 10:30:16;;;;;;;15.85;8.98;;;8.70;99.90;;;;;;5099275;28;20052;-83
2023/04/24 10:32:41;;;;;;;16.77;8.32;;;8.60;99.90;;;;;;5082725;28;20063;-82
2023/04/24 10:35:08;;;;;;;16.08;8.25;;;8.70;99.90;;;;;;5089030;28;20047;-86
2023/04/24 10:37:39;;;;;;;17.60;9.02;;;8.70;99.90;;;;;;5066418;28;20052;-85
2023/04/24 10:40:07;;;;;;;13.20;7.97;;;8.80;99.90;;;;;;5073992;28;20126;-84
2023/04/24 10:42:33;;;;;;;14.52;8.25;;;8.80;99.90;;;;;;5040784;28;20086;-85
2023/04/24 10:45:01;;;;;;;14.15;8.85;;;8.90;99.90;;;;;;5074488;28;20055;-83
2023/04/24 10:47:27;;;;;;;11.93;7.38;;;9.00;99.90;;;;;;5075809;28;20066;-84
2023/04/24 10:49:53;;;;;;;12.60;7.13;;;9.00;99.90;;;;;;5073443;28;20048;-84
2023/04/24 10:52:20;;;;;;;13.82;7.40;;;9.00;99.90;;;;;;5057209;28;20040;-82
2023/04/24 10:54:46;;;;;;;14.25;7.07;;;8.90;99.90;;;;;;5089892;28;20853;-85
2023/04/24 10:57:19;;;;;;;10.38;5.68;;;8.80;99.90;;;;;;5091738;28;20060;-86
2023/04/24 10:59:45;;;;;;;15.05;5.97;;;8.80;99.90;;;;;;5090773;28;20055;-84
2023/04/24 11:02:10;;;;;;;12.90;5.68;;;8.80;99.90;;;;;;5091794;28;20040;-84
2023/04/24 11:04:36;;;;;;;12.57;5.50;;;8.80;99.90;;;;;;5076479;28;20558;-85
2023/04/24 11:07:05;;;;;;;9.88;4.53;;;8.90;99.90;;;;;;5069097;28;20384;-84
2023/04/24 11:09:31;;;;;;;10.05;4.20;;;8.80;99.90;;;;;;5099409;28;20047;-86
2023/04/24 11:12:06;;;;;;;7.22;3.88;;;8.90;99.90;;;;;;5101088;28;20044;-86
2023/04/24 11:15:00;;;;;;;12.20;3.97;;;8.90;99.90;;;;;;5104390;28;20126;-85
2023/04/24 11:17:33;;;;;;;6.65;3.50;;;8.80;99.90;;;;;;5110424;28;20055;-85
2023/04/24 11:20:09;;;;;;;6.47;3.15;;;8.90;99.90;;;;;;5077080;28;20079;-84
2023/04/24 11:22:41;;;;;;;5.63;3.65;;;8.90;99.90;;;;;;5118707;27;20059;-84
2023/04/24 11:25:09;;;;;;;6.15;3.20;;;8.90;99.90;;;;;;5115036;27;20051;-89
2023/04/24 11:27:41;;;;;;;10.20;3.53;;;8.90;99.90;;;;;;5065589;27;20057;-93
2023/04/24 11:30:10;;;;;;;10.63;3.63;;;9.00;99.90;;;;;;5081471;27;20065;-90
2023/04/24 11:32:40;;;;;;;10.18;3.25;;;9.10;99.90;;;;;;5077747;27;20061;-83
2023/04/24 11:35:12;;;;;;;10.15;2.95;;;9.30;99.90;;;;;;5068835;27;20060;-88
2023/04/24 11:37:45;;;;;;;5.95;2.90;;;9.40;99.90;;;;;;5069664;27;20349;-86
2023/04/24 11:40:12;;;;;;;7.30;2.80;;;9.40;99.90;;;;;;5069137;27;20108;-87
2023/04/24 11:42:39;;;;;;;8.68;3.17;;;9.80;99.90;;;;;;5070952;27;20052;-88
2023/04/24 11:45:15;;;;;;;12.20;3.55;;;9.40;99.90;;;;;;5074186;27;20432;-84
2023/04/24 11:47:41;;;;;;;7.07;2.97;;;9.40;99.90;;;;;;5112172;27;20063;-86
2023/04/24 11:50:12;;;;;;;8.00;3.10;;;9.50;99.90;;;;;;5096653;27;20474;-88
2023/04/24 11:52:42;;;;;;;8.02;2.72;;;9.50;99.90;;;;;;5079697;27;20073;-87
2023/04/24 11:55:15;;;;;;;7.28;2.20;;;9.80;99.90;;;;;;5096838;27;20537;-86
2023/04/24 11:57:52;;;;;;;6.43;2.40;;;9.90;99.90;;;;;;5097693;27;20125;-84
2023/04/24 12:00:29;;;;;;;5.88;2.67;;;10.10;99.90;;;;;;5096525;27;20248;-86
2023/04/24 12:03:08;;;;;;;6.15;2.97;;;10.40;99.90;;;;;;5079607;27;20376;-84
2023/04/24 12:05:37;;;;;;;7.18;2.75;;;10.40;99.90;;;;;;5113303;27;20057;-85
2023/04/24 12:08:03;;;;;;;5.65;3.00;;;10.50;99.90;;;;;;5113329;27;20050;-86
2023/04/24 12:10:34;;;;;;;6.72;2.78;;;10.30;99.90;;;;;;5062760;27;20466;-84
2023/04/24 12:13:03;;;;;;;5.55;2.53;;;10.20;99.90;;;;;;5113308;27;20055;-85
2023/04/24 12:15:29;;;;;;;7.40;2.55;;;10.10;99.90;;;;;;5095883;27;20138;-85
2023/04/24 12:17:56;;;;;;;9.35;2.47;;;9.70;99.90;;;;;;5130898;27;20502;-84
2023/04/24 12:20:31;;;;;;;7.32;2.28;;;9.60;99.90;;;;;;5095523;27;20039;-86
2023/04/24 12:23:05;;;;;;;3.63;1.92;;;9.40;99.90;;;;;;5095013;27;20131;-85
2023/04/24 12:25:34;;;;;;;5.65;2.10;;;9.30;99.90;;;;;;5112228;27;20061;-85
2023/04/24 12:28:18;;;;;;;4.30;2.40;;;9.20;99.90;;;;;;5064870;27;20035;-86
2023/04/24 12:30:48;;;;;;;;;;;9.30;99.90;;;;;;5098564;27;20407;-84
2023/04/24 12:33:21;;;;;;;6.53;2.00;;;9.20;99.90;;;;;;5095791;27;19924;-83
2023/04/24 12:35:48;;;;;;;4.30;2.28;;;9.20;99.90;;;;;;5079418;27;20055;-90
2023/04/24 12:38:15;;;;;;;4.18;1.95;;;9.20;99.90;;;;;;5111952;27;20061;-85
2023/04/24 12:40:41;;;;;;;7.25;2.38;;;9.20;99.90;;;;;;5094978;27;20119;-83
2023/04/24 12:43:20;;;;;;;5.50;2.25;;;9.30;99.90;;;;;;5078477;27;20286;-85
2023/04/24 12:45:52;;;;;;;7.63;2.72;;;9.50;99.90;;;;;;5111910;27;20035;-85
2023/04/24 12:48:17;;;;;;;4.85;2.33;;;9.60;99.90;;;;;;5095262;27;20477;-85
2023/04/24 12:50:46;;;;;;;7.22;2.25;;;9.70;99.90;;;;;;5095106;27;20111;-86
2023/04/24 12:53:12;;;;;;;4.43;2.53;;;9.80;99.90;;;;;;5106352;27;20138;-84
2023/04/24 12:55:40;;;;;;;6.15;2.33;;;9.90;99.90;;;;;;5078303;27;20137;-86
2023/04/24 12:58:06;;;;;;;4.03;2.40;;;9.80;99.90;;;;;;5078713;27;20057;-87
2023/04/24 13:00:32;;;;;;;3.78;2.17;;;9.90;99.90;;;;;;5088043;27;20134;-85
2023/04/24 13:02:57;;;;;;;4.78;2.53;;;9.90;99.90;;;;;;5066241;27;20052;-88
2023/04/24 13:05:24;;;;;;;10.48;3.30;;;9.90;99.90;;;;;;5064480;28;20046;-87
2023/04/24 13:07:57;;;;;;;9.98;3.40;;;10.00;99.90;;;;;;5073520;28;20148;-88
2023/04/24 13:10:23;;;;;;;4.90;1.92;;;10.00;99.90;;;;;;5091928;28;20126;-88
2023/04/24 13:12:49;;;;;;;6.53;2.20;;;9.80;99.90;;;;;;5092744;28;20118;-89
2023/04/24 13:15:15;;;;;;;7.05;1.77;;;9.70;99.90;;;;;;5059618;27;20051;-88
2023/04/24 13:17:41;;;;;;;5.45;1.95;;;9.70;99.90;;;;;;5078723;27;20065;-86
2023/04/24 13:20:07;;;;;;;5.20;2.25;;;9.60;99.90;;;;;;5066204;27;20094;-86
2023/04/24 13:22:33;;;;;;;5.03;2.10;;;8.40;99.90;;;;;;5107794;28;20065;-90
2023/04/24 13:24:59;;;;;;;5.65;2.03;;;9.40;99.90;;;;;;5065673;28;20066;-89
2023/04/24 13:27:25;;;;;;;5.93;2.28;;;9.60;99.90;;;;;;5067080;28;20069;-88
2023/04/24 13:29:51;;;;;;;6.82;2.38;;;9.80;99.90;;;;;;5058442;28;20039;-87